CheckWX is a tool to help pilots better visualize weather data.  It is not intended as a substitute for an official pre-flight weather briefing.

06:10:11 UTC

0R0 METAR
Columbia-Marion County Airport
Columbia, Mississippi, USA
Current

15 mins ago

K0R0 230555Z AUTO 14005KT 10SM +RA CLR 15/12 A3016 RMK AO2
Observed
Apr-23 @ 05:55 UTC
Wind
  • 140° at 5 KTS
Visibility
10 SM
Flight Rules
VFR
Conditions
Heavy Rain
Cloud Levels
  • Clear skies
Temperature
15°C / 59°F
Dewpoint
12°C / 54°F
Humidity
82%
Altimeter
30.16" Hg
Pressure
1021.32 hPa
Previous

35 mins ago

K0R0 230535Z AUTO 00000KT 10SM +RA CLR 14/12 A3017 RMK AO2
Observed
Apr-23 @ 05:35 UTC
Visibility
10 SM
Flight Rules
VFR
Conditions
Heavy Rain
Cloud Levels
  • Clear skies
Temperature
14°C / 57°F
Dewpoint
12°C / 54°F
Humidity
88%
Altimeter
30.17" Hg
Pressure
1021.72 hPa
Previous

55 mins ago

K0R0 230515Z AUTO 00000KT 10SM +RA CLR 14/12 A3018 RMK AO2
Observed
Apr-23 @ 05:15 UTC
Visibility
10 SM
Flight Rules
VFR
Conditions
Heavy Rain
Cloud Levels
  • Clear skies
Temperature
14°C / 57°F
Dewpoint
12°C / 54°F
Humidity
88%
Altimeter
30.18" Hg
Pressure
1022.02 hPa